KGLR/GLR METAR and TAF weather

Enter ICAO airport designator
Station Type Date Time Source
KGLR METAR 2022/06/30 00:53 UTC NOAA

KGLR 300053Z AUTO 07007KT 10SM CLR 19/06 A3017 RMK AO2 PRESFR SLP215 T01940061


Station Type Date Time Source
KGLR Decoded METAR 2022/06/30 00:53 UTC NOAA

GAYLORD REGIONAL AIRPORT, MI, United States (KGLR) 45-01N 84-41W 407M
Jun 29, 2022 - 08:53 PM EDT / 2022.06.30 0053 UTC
Wind: from the ENE (070 degrees) at 8 MPH (7 KT):0
Visibility: 10 mile(s):0
Sky conditions: clear
Temperature: 66.9 F (19.4 C)
Dew Point: 43.0 F (6.1 C)
Relative Humidity: 41%
Pressure (altimeter): 30.17 in. Hg (1021 hPa)
Pressure tendency: falling rapidly
ob: KGLR 300053Z AUTO 07007KT 10SM CLR 19/06 A3017 RMK AO2 PRESFR SLP215 T01940061
cycle: 1

Station Type Date Time Source
KGLR TAF UTC NOAA

Error!

Example: see airport list